createdAt,value
2023-10-12T00:02:22.645Z,3.30
2023-10-12T00:05:02.573Z,2.65
2023-10-12T00:10:12.803Z,3.03
2023-10-12T00:12:45.768Z,3.03
2023-10-12T00:15:30.233Z,3.05
2023-10-12T00:18:00.464Z,3.13
2023-10-12T00:20:37.037Z,3.10
2023-10-12T00:23:17.169Z,3.15
2023-10-12T00:25:49.873Z,2.92
2023-10-12T00:28:20.435Z,2.80
2023-10-12T00:30:49.162Z,3.20
2023-10-12T00:33:16.510Z,3.10
2023-10-12T00:35:50.088Z,3.10
2023-10-12T00:38:21.094Z,2.90
2023-10-12T00:40:57.349Z,2.50
2023-10-12T00:43:38.074Z,2.95
2023-10-12T00:46:34.338Z,3.00
2023-10-12T00:49:16.857Z,3.00
2023-10-12T00:51:55.156Z,2.67
2023-10-12T00:54:49.985Z,2.63
2023-10-12T00:57:17.855Z,2.60
2023-10-12T00:59:44.904Z,2.88
2023-10-12T01:02:13.404Z,3.17
2023-10-12T01:04:45.132Z,2.92
2023-10-12T01:07:20.543Z,3.40
2023-10-12T01:09:55.606Z,2.42
2023-10-12T01:12:31.237Z,3.45
2023-10-12T01:14:58.266Z,3.25
2023-10-12T01:17:26.958Z,2.60
2023-10-12T01:19:53.907Z,2.73
2023-10-12T01:22:33.045Z,3.05
2023-10-12T01:25:01.810Z,3.28
2023-10-12T01:27:29.054Z,2.83
2023-10-12T01:30:15.989Z,2.85
2023-10-12T01:32:43.219Z,2.97
2023-10-12T01:35:12.435Z,2.90
2023-10-12T01:37:57.042Z,2.92
2023-10-12T01:42:53.171Z,2.80
2023-10-12T01:45:24.489Z,3.13
2023-10-12T01:48:08.166Z,3.00
2023-10-12T01:50:38.937Z,3.08
2023-10-12T01:53:26.599Z,2.90
2023-10-12T01:55:55.256Z,2.83
2023-10-12T01:58:28.302Z,2.88
2023-10-12T02:00:56.199Z,2.97
2023-10-12T02:03:27.291Z,3.13
2023-10-12T02:06:00.531Z,3.20
2023-10-12T02:08:35.699Z,3.13
2023-10-12T02:11:26.013Z,3.03
2023-10-12T02:16:32.307Z,3.10
2023-10-12T02:19:01.472Z,2.65
2023-10-12T02:21:29.010Z,2.88
2023-10-12T02:24:11.052Z,3.42
2023-10-12T02:26:53.767Z,2.80
2023-10-12T02:29:20.981Z,2.92
2023-10-12T02:31:53.356Z,3.00
2023-10-12T02:34:30.902Z,3.03
2023-10-12T02:37:02.690Z,2.92
2023-10-12T02:39:30.816Z,3.10
2023-10-12T02:42:24.632Z,2.90
2023-10-12T02:44:55.606Z,2.90
2023-10-12T02:47:31.748Z,2.70
2023-10-12T02:50:06.491Z,2.90
2023-10-12T02:52:33.617Z,2.97
2023-10-12T02:55:22.060Z,2.85
2023-10-12T02:58:09.117Z,3.00
2023-10-12T03:00:37.432Z,3.15
2023-10-12T03:03:11.942Z,2.92
2023-10-12T03:05:49.267Z,3.25
2023-10-12T03:08:18.743Z,3.10
2023-10-12T03:11:01.941Z,3.05
2023-10-12T03:13:36.171Z,3.05
2023-10-12T03:16:20.553Z,2.88
2023-10-12T03:18:54.290Z,2.80
2023-10-12T03:21:24.270Z,2.70
2023-10-12T03:23:51.221Z,3.03
2023-10-12T03:26:27.744Z,3.10
2023-10-12T03:29:10.594Z,2.90
2023-10-12T03:31:54.224Z,2.63
2023-10-12T03:34:36.540Z,2.63
2023-10-12T03:37:15.115Z,3.13
2023-10-12T03:39:52.165Z,3.07
2023-10-12T03:42:31.282Z,3.03
2023-10-12T03:45:09.220Z,3.03
2023-10-12T03:48:04.141Z,2.97
2023-10-12T03:50:52.885Z,3.38
2023-10-12T03:53:27.788Z,2.67
2023-10-12T03:55:58.906Z,3.05
2023-10-12T03:58:25.853Z,3.08
2023-10-12T04:01:28.449Z,2.95
2023-10-12T04:04:10.549Z,2.97
2023-10-12T04:06:59.149Z,2.67
2023-10-12T04:09:33.330Z,2.60
2023-10-12T04:12:19.203Z,2.90
2023-10-12T04:14:54.599Z,3.22
2023-10-12T04:17:21.487Z,2.80
2023-10-12T04:20:08.264Z,2.97
2023-10-12T04:22:42.247Z,2.90
2023-10-12T04:25:22.457Z,2.90
2023-10-12T04:27:52.136Z,2.85
2023-10-12T04:30:24.627Z,2.92
2023-10-12T04:32:51.616Z,3.10
2023-10-12T04:35:22.404Z,2.88
2023-10-12T04:37:49.724Z,2.97
2023-10-12T04:40:38.658Z,3.13
2023-10-12T04:43:08.367Z,2.90
2023-10-12T04:45:56.834Z,3.30
2023-10-12T04:48:32.648Z,2.88
2023-10-12T04:51:08.404Z,3.00
2023-10-12T04:53:54.086Z,2.63
2023-10-12T04:56:21.000Z,2.88
2023-10-12T05:02:02.358Z,2.67
2023-10-12T05:04:42.223Z,3.00
2023-10-12T05:07:18.045Z,2.80
2023-10-12T05:09:50.862Z,3.13
2023-10-12T05:12:18.679Z,3.40
2023-10-12T05:14:45.686Z,2.95
2023-10-12T05:17:12.570Z,2.60
2023-10-12T05:19:43.318Z,2.80
2023-10-12T05:22:13.864Z,2.92
2023-10-12T05:24:41.079Z,2.53
2023-10-12T05:27:10.949Z,2.90
2023-10-12T05:29:46.460Z,3.33
2023-10-12T05:32:19.147Z,2.95
2023-10-12T05:34:47.622Z,3.42
2023-10-12T05:37:39.003Z,3.00
2023-10-12T05:40:15.179Z,2.92
2023-10-12T05:42:42.143Z,3.28
2023-10-12T05:45:32.210Z,3.10
2023-10-12T05:47:59.196Z,3.05
2023-10-12T05:50:26.935Z,2.75
2023-10-12T05:53:08.221Z,3.22
2023-10-12T05:55:35.378Z,2.60
2023-10-12T05:58:16.486Z,2.90
2023-10-12T06:00:46.615Z,2.83
2023-10-12T06:03:17.102Z,2.85
2023-10-12T06:05:47.494Z,2.85
2023-10-12T06:08:17.834Z,2.38
2023-10-12T06:10:45.276Z,2.78
2023-10-12T06:13:16.816Z,2.95
2023-10-12T06:15:44.802Z,3.00
2023-10-12T06:18:12.282Z,3.10
2023-10-12T06:20:43.206Z,3.03
2023-10-12T06:23:10.516Z,2.78
2023-10-12T06:25:43.195Z,3.05
2023-10-12T06:28:20.082Z,3.03
2023-10-12T06:30:47.958Z,2.97
2023-10-12T06:33:16.270Z,3.20
2023-10-12T06:36:01.299Z,2.75
2023-10-12T06:38:35.290Z,3.05
2023-10-12T06:41:31.302Z,3.33
2023-10-12T06:44:14.735Z,3.20
2023-10-12T06:46:49.630Z,2.90
2023-10-12T06:49:38.730Z,3.28
2023-10-12T06:52:05.606Z,2.70
2023-10-12T06:54:40.445Z,3.00
2023-10-12T06:57:17.314Z,3.10
2023-10-12T07:00:00.980Z,2.97
2023-10-12T07:02:29.250Z,3.30
2023-10-12T07:05:02.611Z,2.55
2023-10-12T07:07:31.669Z,2.72
2023-10-12T07:10:25.477Z,2.67
2023-10-12T07:12:52.704Z,3.33
2023-10-12T07:15:24.167Z,3.00
2023-10-12T07:17:51.906Z,2.75
2023-10-12T07:20:32.073Z,3.03
2023-10-12T07:23:06.174Z,3.30
2023-10-12T07:25:37.589Z,2.90
2023-10-12T07:28:06.756Z,3.25
2023-10-12T07:30:37.512Z,3.00
2023-10-12T07:33:08.770Z,3.20
2023-10-12T07:35:37.283Z,3.05
2023-10-12T07:38:07.244Z,2.70
2023-10-12T07:40:38.717Z,2.80
2023-10-12T07:43:07.838Z,3.40
2023-10-12T07:45:49.636Z,3.03
2023-10-12T07:48:53.952Z,3.15
2023-10-12T07:51:26.167Z,3.20
2023-10-12T07:54:01.375Z,3.00
2023-10-12T07:56:48.541Z,3.10
2023-10-12T07:59:15.874Z,2.95
2023-10-12T08:01:51.402Z,2.90
2023-10-12T08:04:30.070Z,2.90
2023-10-12T08:06:57.473Z,3.10
2023-10-12T08:09:27.690Z,3.05
2023-10-12T08:11:55.128Z,3.10
2023-10-12T08:14:25.477Z,2.95
2023-10-12T08:17:19.148Z,2.70
2023-10-12T08:19:45.959Z,2.83
2023-10-12T08:22:26.885Z,2.97
2023-10-12T08:24:57.848Z,2.58
2023-10-12T08:27:25.658Z,3.10
2023-10-12T08:29:52.529Z,3.17
2023-10-12T08:32:28.386Z,2.90
2023-10-12T08:35:01.912Z,3.35
2023-10-12T08:37:28.990Z,2.88
2023-10-12T08:39:58.677Z,3.17
2023-10-12T08:42:56.795Z,2.83
2023-10-12T08:45:31.016Z,3.05
2023-10-12T08:48:03.583Z,2.92
2023-10-12T08:50:49.152Z,3.42
2023-10-12T08:53:23.718Z,3.05
2023-10-12T08:55:51.140Z,2.95
2023-10-12T08:58:39.367Z,2.85
2023-10-12T09:01:09.309Z,3.22
2023-10-12T09:03:50.506Z,3.13
2023-10-12T09:06:35.505Z,3.05
2023-10-12T09:09:03.770Z,3.22
2023-10-12T09:11:37.106Z,3.42
2023-10-12T09:14:13.466Z,3.25
2023-10-12T09:16:41.430Z,3.20
2023-10-12T09:19:25.390Z,3.50
2023-10-12T09:22:01.107Z,3.65
2023-10-12T09:24:36.654Z,3.70
2023-10-12T09:27:27.492Z,3.38
2023-10-12T09:30:02.342Z,3.90
2023-10-12T09:32:30.201Z,3.83
2023-10-12T09:34:57.097Z,3.90
2023-10-12T09:37:23.944Z,3.67
2023-10-12T09:39:50.840Z,3.67
2023-10-12T09:42:31.584Z,3.67
2023-10-12T09:45:25.176Z,3.72
2023-10-12T09:47:59.769Z,3.75
2023-10-12T09:50:33.863Z,3.47
2023-10-12T09:53:13.548Z,3.90
2023-10-12T09:55:46.646Z,4.00
2023-10-12T09:58:23.542Z,4.15
2023-10-12T10:01:00.424Z,4.32
2023-10-12T10:03:37.160Z,4.47
2023-10-12T10:06:14.132Z,4.10
2023-10-12T10:08:46.919Z,4.00
2023-10-12T10:11:14.015Z,3.60
2023-10-12T10:13:48.550Z,3.78
2023-10-12T10:16:18.774Z,3.80
2023-10-12T10:18:47.778Z,4.28
2023-10-12T10:21:16.896Z,4.30
2023-10-12T10:23:53.768Z,4.20
2023-10-12T10:26:25.180Z,4.15
2023-10-12T10:29:08.769Z,4.15
2023-10-12T10:31:47.975Z,4.85
2023-10-12T10:34:24.366Z,4.43
2023-10-12T10:36:54.118Z,4.35
2023-10-12T10:41:47.903Z,4.63
2023-10-12T10:44:18.616Z,4.13
2023-10-12T10:46:47.467Z,4.07
2023-10-12T10:49:33.182Z,4.47
2023-10-12T10:52:09.373Z,4.57
2023-10-12T10:54:40.849Z,3.85
2023-10-12T10:57:26.179Z,4.22
2023-10-12T10:59:53.695Z,4.15
2023-10-12T11:02:22.292Z,3.83
2023-10-12T11:04:53.017Z,4.40
2023-10-12T11:07:19.951Z,4.25
2023-10-12T11:09:52.731Z,3.92
2023-10-12T11:12:24.620Z,4.18
2023-10-12T11:15:24.566Z,4.50
2023-10-12T11:17:57.847Z,4.72
2023-10-12T11:20:28.374Z,4.85
2023-10-12T11:22:55.991Z,4.70
2023-10-12T11:25:23.259Z,4.18
2023-10-12T11:27:52.629Z,4.03
2023-10-12T11:33:01.601Z,4.45
2023-10-12T11:35:42.524Z,4.78
2023-10-12T11:38:20.259Z,4.38
2023-10-12T11:40:53.521Z,3.85
2023-10-12T11:48:37.017Z,3.85
2023-10-12T11:51:13.659Z,4.35
2023-10-12T11:53:41.732Z,4.05
2023-10-12T11:56:14.790Z,4.50
2023-10-12T11:58:52.489Z,4.38
2023-10-12T12:01:19.685Z,4.13
2023-10-12T12:03:47.231Z,4.43
2023-10-12T12:06:19.735Z,4.00
2023-10-12T12:08:48.004Z,4.07
2023-10-12T12:11:20.304Z,4.20
2023-10-12T12:13:53.431Z,3.78
2023-10-12T12:16:23.929Z,3.72
2023-10-12T12:18:55.142Z,4.32
2023-10-12T12:21:34.356Z,4.10
2023-10-12T12:24:16.728Z,4.28
2023-10-12T12:26:47.879Z,4.20
2023-10-12T12:29:17.750Z,3.55
2023-10-12T12:31:44.630Z,3.90
2023-10-12T12:34:19.747Z,4.22
2023-10-12T12:36:49.884Z,3.97
2023-10-12T12:39:23.097Z,4.43
2023-10-12T12:41:49.935Z,4.25
2023-10-12T12:44:18.349Z,4.60
2023-10-12T12:46:45.566Z,4.00
2023-10-12T12:49:13.433Z,4.57
2023-10-12T12:51:40.388Z,3.95
2023-10-12T12:54:07.355Z,4.32
2023-10-12T12:56:34.234Z,4.15
2023-10-12T12:59:01.567Z,4.25
2023-10-12T13:01:29.348Z,4.53
2023-10-12T13:03:56.897Z,4.63
2023-10-12T13:06:26.976Z,4.63
2023-10-12T13:08:54.029Z,4.15
2023-10-12T13:11:22.110Z,4.25
2023-10-12T13:13:49.498Z,4.47
2023-10-12T13:16:16.864Z,4.43
2023-10-12T13:18:50.395Z,4.38
2023-10-12T13:21:18.085Z,5.13
2023-10-12T13:23:46.243Z,3.70
2023-10-12T13:26:14.903Z,4.30
2023-10-12T13:28:43.565Z,4.03
2023-10-12T13:31:13.330Z,4.25
2023-10-12T13:33:43.435Z,4.18
2023-10-12T13:36:10.845Z,4.50
2023-10-12T13:38:38.774Z,4.25
2023-10-12T13:41:12.633Z,4.60
2023-10-12T13:43:40.270Z,4.32
2023-10-12T13:46:10.914Z,3.97
2023-10-12T13:48:42.417Z,3.83
2023-10-12T13:51:10.137Z,4.05
2023-10-12T13:53:37.755Z,4.18
2023-10-12T13:56:06.128Z,3.88
2023-10-12T13:58:35.660Z,4.82
2023-10-12T14:01:04.392Z,4.53
2023-10-12T14:03:37.046Z,4.60
2023-10-12T14:06:07.893Z,4.40
2023-10-12T14:08:36.668Z,4.53
2023-10-12T14:11:08.062Z,4.50
2023-10-12T14:13:35.274Z,4.45
2023-10-12T14:16:02.497Z,4.70
2023-10-12T14:18:29.823Z,4.85
2023-10-12T14:20:57.238Z,4.60
2023-10-12T14:23:39.368Z,4.05
2023-10-12T14:26:06.223Z,4.47
2023-10-12T14:28:35.702Z,4.68
2023-10-12T14:31:02.958Z,4.40
2023-10-12T14:33:32.797Z,4.90
2023-10-12T14:35:59.735Z,4.47
2023-10-12T14:38:28.405Z,4.50
2023-10-12T14:40:57.995Z,5.20
2023-10-12T14:45:59.864Z,4.88
2023-10-12T14:48:27.823Z,5.15
2023-10-12T14:51:08.618Z,5.45
2023-10-12T14:53:36.681Z,6.03
2023-10-12T14:56:06.826Z,5.50
2023-10-12T14:58:34.950Z,5.60
2023-10-12T15:01:01.902Z,5.60
2023-10-12T15:03:35.687Z,6.35
2023-10-12T15:06:04.032Z,6.63
2023-10-12T15:08:30.950Z,6.13
2023-10-12T15:10:58.512Z,5.78
2023-10-12T15:13:27.165Z,5.78
2023-10-12T15:15:54.860Z,5.53
2023-10-12T15:18:25.651Z,6.03
2023-10-12T15:20:56.540Z,5.70
2023-10-12T15:23:29.894Z,5.95
2023-10-12T15:26:02.398Z,6.43
2023-10-12T15:28:30.050Z,5.80
2023-10-12T15:30:57.100Z,5.95
2023-10-12T15:33:24.357Z,6.38
2023-10-12T15:35:51.380Z,6.05
2023-10-12T15:38:19.060Z,6.18
2023-10-12T15:40:46.096Z,6.10
2023-10-12T15:43:18.994Z,6.07
2023-10-12T15:45:48.045Z,5.65
2023-10-12T15:48:15.167Z,5.88
2023-10-12T15:50:46.628Z,6.22
2023-10-12T15:53:13.465Z,6.03
2023-10-12T15:55:45.743Z,5.93
2023-10-12T15:58:13.072Z,5.43
2023-10-12T16:00:40.154Z,5.47
2023-10-12T16:03:08.304Z,5.13
2023-10-12T16:05:35.759Z,5.65
2023-10-12T16:08:09.455Z,5.80
2023-10-12T16:10:37.303Z,5.60
2023-10-12T16:13:07.417Z,5.50
2023-10-12T16:15:37.134Z,5.15
2023-10-12T16:18:04.236Z,5.20
2023-10-12T16:20:31.128Z,5.00
2023-10-12T16:22:59.566Z,5.57
2023-10-12T16:25:28.637Z,4.75
2023-10-12T16:27:58.777Z,5.45
2023-10-12T16:30:27.790Z,4.88
2023-10-12T16:32:55.752Z,4.70
2023-10-12T16:35:27.094Z,4.90
2023-10-12T16:38:00.152Z,5.07
2023-10-12T16:40:29.713Z,5.05
2023-10-12T16:42:56.760Z,5.32
2023-10-12T16:45:24.492Z,5.25
2023-10-12T16:47:52.419Z,4.82
2023-10-12T16:50:19.912Z,4.45
2023-10-12T16:52:50.382Z,4.90
2023-10-12T16:55:18.409Z,4.90
2023-10-12T16:57:46.496Z,5.22
2023-10-12T17:00:17.804Z,4.82
2023-10-12T17:02:45.950Z,4.55
2023-10-12T17:05:23.224Z,4.82
2023-10-12T17:07:50.084Z,4.70
2023-10-12T17:10:19.836Z,4.78
2023-10-12T17:12:46.876Z,4.43
2023-10-12T17:15:15.002Z,4.70
2023-10-12T17:17:41.911Z,4.35
2023-10-12T17:20:12.417Z,4.50
2023-10-12T17:22:40.014Z,4.15
2023-10-12T17:25:10.097Z,4.60
2023-10-12T17:27:41.005Z,4.15
2023-10-12T17:30:08.753Z,4.38
2023-10-12T17:32:36.025Z,3.65
2023-10-12T17:35:05.887Z,4.38
2023-10-12T17:37:35.886Z,4.18
2023-10-12T17:40:02.907Z,5.72
2023-10-12T17:42:32.873Z,3.92
2023-10-12T17:45:02.597Z,4.38
2023-10-12T17:47:29.562Z,4.35
2023-10-12T17:49:56.718Z,4.57
2023-10-12T17:52:24.636Z,4.43
2023-10-12T17:54:51.556Z,4.57
2023-10-12T17:57:19.908Z,4.70
2023-10-12T17:59:48.373Z,4.70
2023-10-12T18:02:15.773Z,4.43
2023-10-12T18:04:47.088Z,4.68
2023-10-12T18:07:14.888Z,4.40
2023-10-12T18:09:44.491Z,5.13
2023-10-12T18:14:39.794Z,5.18
2023-10-12T18:17:06.754Z,5.43
2023-10-12T18:19:34.735Z,5.38
2023-10-12T18:22:02.833Z,4.53
2023-10-12T18:24:30.545Z,4.40
2023-10-12T18:26:59.239Z,4.60
2023-10-12T18:29:26.135Z,4.33
2023-10-12T18:31:53.103Z,4.78
2023-10-12T18:34:20.083Z,4.40
2023-10-12T18:36:58.177Z,4.43
2023-10-12T18:39:30.259Z,5.13
2023-10-12T18:41:58.629Z,4.53
2023-10-12T18:44:25.492Z,4.35
2023-10-12T18:46:53.345Z,4.53
2023-10-12T18:49:20.911Z,4.03
2023-10-12T18:51:47.930Z,4.28
2023-10-12T18:54:14.843Z,4.20
2023-10-12T18:56:41.708Z,4.40
2023-10-12T18:59:09.961Z,4.30
2023-10-12T19:01:37.155Z,4.47
2023-10-12T19:04:04.427Z,3.83
2023-10-12T19:06:32.763Z,4.63
2023-10-12T19:09:00.007Z,4.00
2023-10-12T19:11:27.417Z,3.95
2023-10-12T19:13:54.993Z,3.80
2023-10-12T19:16:22.253Z,4.00
2023-10-12T19:18:49.715Z,4.07
2023-10-12T19:21:17.202Z,3.70
2023-10-12T19:23:44.631Z,4.03
2023-10-12T19:26:11.858Z,3.70
2023-10-12T19:28:39.537Z,3.60
2023-10-12T19:31:12.967Z,4.40
2023-10-12T19:33:40.726Z,3.50
2023-10-12T19:36:11.734Z,3.70
2023-10-12T19:38:42.053Z,3.58
2023-10-12T19:41:09.992Z,3.42
2023-10-12T19:43:41.113Z,3.72
2023-10-12T19:46:13.559Z,3.33
2023-10-12T19:48:41.110Z,3.95
2023-10-12T19:51:17.293Z,3.53
2023-10-12T19:53:46.202Z,3.80
2023-10-12T19:56:20.941Z,3.78
2023-10-12T19:58:49.600Z,3.85
2023-10-12T20:01:21.505Z,3.90
2023-10-12T20:03:52.424Z,3.10
2023-10-12T20:06:21.022Z,3.97
2023-10-12T20:08:49.195Z,3.25
2023-10-12T20:11:17.246Z,3.47
2023-10-12T20:13:46.432Z,3.40
2023-10-12T20:16:20.045Z,3.58
2023-10-12T20:18:49.854Z,3.38
2023-10-12T20:23:49.014Z,3.30
2023-10-12T20:26:18.549Z,3.55
2023-10-12T20:31:12.570Z,3.60
2023-10-12T20:33:44.100Z,3.40
2023-10-12T20:36:11.082Z,2.90
2023-10-12T20:38:38.174Z,3.20
2023-10-12T20:41:05.893Z,3.58
2023-10-12T20:43:35.686Z,3.33
2023-10-12T20:46:09.559Z,3.08
2023-10-12T20:48:37.025Z,3.00
2023-10-12T20:51:05.848Z,3.15
2023-10-12T20:53:37.399Z,3.45
2023-10-12T20:56:09.661Z,3.50
2023-10-12T20:58:44.295Z,3.17
2023-10-12T21:01:28.428Z,3.33
2023-10-12T21:03:56.460Z,3.20
2023-10-12T21:06:32.300Z,3.00
2023-10-12T21:09:02.733Z,3.55
2023-10-12T21:11:33.185Z,3.30
2023-10-12T21:14:04.665Z,3.60
2023-10-12T21:16:33.767Z,3.42
2023-10-12T21:19:13.528Z,2.95
2023-10-12T21:21:40.522Z,3.13
2023-10-12T21:24:13.832Z,2.97
2023-10-12T21:26:40.820Z,2.90
2023-10-12T21:29:08.084Z,3.33
2023-10-12T21:31:41.361Z,3.40
2023-10-12T21:34:12.791Z,3.45
2023-10-12T21:36:44.439Z,3.72
2023-10-12T21:39:30.605Z,3.10
2023-10-12T21:42:00.878Z,3.30
2023-10-12T21:44:27.740Z,3.45
2023-10-12T21:46:54.834Z,3.30
2023-10-12T21:49:21.953Z,3.30
2023-10-12T21:51:52.183Z,3.20
2023-10-12T21:54:18.983Z,3.20
2023-10-12T21:56:45.900Z,3.47
2023-10-12T21:59:13.066Z,3.30
2023-10-12T22:02:00.430Z,3.17
2023-10-12T22:04:38.062Z,3.28
2023-10-12T22:07:08.451Z,3.30
2023-10-12T22:09:36.564Z,3.67
2023-10-12T22:12:04.308Z,3.10
2023-10-12T22:14:49.601Z,3.55
2023-10-12T22:17:19.996Z,3.45
2023-10-12T22:19:48.099Z,3.53
2023-10-12T22:22:15.419Z,3.50
2023-10-12T22:24:44.974Z,3.30
2023-10-12T22:32:11.759Z,3.20
2023-10-12T22:34:40.861Z,3.40
2023-10-12T22:37:14.882Z,3.40
2023-10-12T22:39:43.155Z,3.08
2023-10-12T22:42:10.228Z,3.50
2023-10-12T22:44:37.187Z,3.40
2023-10-12T22:47:04.572Z,3.03
2023-10-12T22:49:34.905Z,3.15
2023-10-12T22:52:02.185Z,3.00
2023-10-12T22:54:34.713Z,3.10
2023-10-12T22:57:03.665Z,3.08
2023-10-12T22:59:31.536Z,2.90
2023-10-12T23:01:58.833Z,2.80
2023-10-12T23:04:25.970Z,3.08
2023-10-12T23:06:53.369Z,3.20
2023-10-12T23:09:20.599Z,3.05
2023-10-12T23:11:50.954Z,2.85
2023-10-12T23:14:28.600Z,3.10
2023-10-12T23:16:59.074Z,3.13
2023-10-12T23:19:44.704Z,3.10
2023-10-12T23:22:27.040Z,2.80
2023-10-12T23:24:58.835Z,3.38
2023-10-12T23:27:33.086Z,3.17
2023-10-12T23:30:00.876Z,3.15
2023-10-12T23:32:28.969Z,3.38
2023-10-12T23:34:56.722Z,3.50
2023-10-12T23:37:27.043Z,3.25
2023-10-12T23:39:54.617Z,3.45
2023-10-12T23:42:25.213Z,3.10
2023-10-12T23:44:55.677Z,3.10
2023-10-12T23:47:25.450Z,3.17
2023-10-12T23:50:10.959Z,3.58
2023-10-12T23:52:57.361Z,3.38
2023-10-12T23:55:31.095Z,3.10
2023-10-12T23:58:03.528Z,3.17
